sensor_id;sensor_type;location;lat;lon;timestamp;P1;durP1;ratioP1;P2;durP2;ratioP2
59756;SDS011;45631;51.962;5.974;2022-10-31T00:00:45;14.68;;;8.90;;
59756;SDS011;45631;51.962;5.974;2022-10-31T00:03:14;14.75;;;8.80;;
59756;SDS011;45631;51.962;5.974;2022-10-31T00:05:45;13.48;;;8.18;;
59756;SDS011;45631;51.962;5.974;2022-10-31T00:08:14;15.60;;;9.48;;
59756;SDS011;45631;51.962;5.974;2022-10-31T00:10:43;13.70;;;8.55;;
59756;SDS011;45631;51.962;5.974;2022-10-31T00:13:12;16.63;;;9.57;;
59756;SDS011;45631;51.962;5.974;2022-10-31T00:15:42;16.73;;;9.70;;
59756;SDS011;45631;51.962;5.974;2022-10-31T00:18:10;15.50;;;9.10;;
59756;SDS011;45631;51.962;5.974;2022-10-31T00:20:40;15.35;;;8.80;;
59756;SDS011;45631;51.962;5.974;2022-10-31T00:23:10;17.38;;;10.10;;
59756;SDS011;45631;51.962;5.974;2022-10-31T00:25:39;18.33;;;10.05;;
59756;SDS011;45631;51.962;5.974;2022-10-31T00:28:07;17.65;;;10.07;;
59756;SDS011;45631;51.962;5.974;2022-10-31T00:30:38;16.80;;;9.38;;
59756;SDS011;45631;51.962;5.974;2022-10-31T00:33:06;18.17;;;9.60;;
59756;SDS011;45631;51.962;5.974;2022-10-31T00:35:34;15.38;;;8.93;;
59756;SDS011;45631;51.962;5.974;2022-10-31T00:38:02;15.82;;;9.63;;
59756;SDS011;45631;51.962;5.974;2022-10-31T00:40:34;17.17;;;9.43;;
59756;SDS011;45631;51.962;5.974;2022-10-31T00:43:02;16.05;;;10.05;;
59756;SDS011;45631;51.962;5.974;2022-10-31T00:45:31;18.00;;;8.77;;
59756;SDS011;45631;51.962;5.974;2022-10-31T00:47:59;19.05;;;10.73;;
59756;SDS011;45631;51.962;5.974;2022-10-31T00:50:27;18.85;;;10.57;;
59756;SDS011;45631;51.962;5.974;2022-10-31T00:52:56;17.88;;;10.48;;
59756;SDS011;45631;51.962;5.974;2022-10-31T00:55:25;17.13;;;10.13;;
59756;SDS011;45631;51.962;5.974;2022-10-31T00:57:54;14.55;;;9.45;;
59756;SDS011;45631;51.962;5.974;2022-10-31T01:00:23;15.20;;;9.35;;
59756;SDS011;45631;51.962;5.974;2022-10-31T01:02:51;18.67;;;9.95;;
59756;SDS011;45631;51.962;5.974;2022-10-31T01:05:19;16.92;;;9.50;;
59756;SDS011;45631;51.962;5.974;2022-10-31T01:07:47;17.23;;;10.23;;
59756;SDS011;45631;51.962;5.974;2022-10-31T01:10:16;14.27;;;9.10;;
59756;SDS011;45631;51.962;5.974;2022-10-31T01:12:45;15.63;;;9.35;;
59756;SDS011;45631;51.962;5.974;2022-10-31T01:15:17;13.57;;;8.45;;
59756;SDS011;45631;51.962;5.974;2022-10-31T01:17:47;15.30;;;9.55;;
59756;SDS011;45631;51.962;5.974;2022-10-31T01:20:15;14.60;;;9.05;;
59756;SDS011;45631;51.962;5.974;2022-10-31T01:22:44;18.02;;;9.98;;
59756;SDS011;45631;51.962;5.974;2022-10-31T01:25:12;16.58;;;9.32;;
59756;SDS011;45631;51.962;5.974;2022-10-31T01:27:40;16.63;;;9.23;;
59756;SDS011;45631;51.962;5.974;2022-10-31T01:30:09;15.05;;;9.05;;
59756;SDS011;45631;51.962;5.974;2022-10-31T01:32:39;17.15;;;8.95;;
59756;SDS011;45631;51.962;5.974;2022-10-31T01:35:08;14.85;;;8.95;;
59756;SDS011;45631;51.962;5.974;2022-10-31T01:37:36;14.77;;;8.88;;
59756;SDS011;45631;51.962;5.974;2022-10-31T01:40:04;15.35;;;8.68;;
59756;SDS011;45631;51.962;5.974;2022-10-31T01:42:33;16.88;;;10.20;;
59756;SDS011;45631;51.962;5.974;2022-10-31T01:45:02;17.77;;;10.05;;
59756;SDS011;45631;51.962;5.974;2022-10-31T01:47:34;15.48;;;9.05;;
59756;SDS011;45631;51.962;5.974;2022-10-31T01:50:14;15.80;;;9.18;;
59756;SDS011;45631;51.962;5.974;2022-10-31T01:52:51;15.07;;;8.95;;
59756;SDS011;45631;51.962;5.974;2022-10-31T01:55:20;13.40;;;8.90;;
59756;SDS011;45631;51.962;5.974;2022-10-31T01:57:57;13.57;;;9.10;;
59756;SDS011;45631;51.962;5.974;2022-10-31T02:00:28;14.25;;;8.85;;
59756;SDS011;45631;51.962;5.974;2022-10-31T02:02:57;16.02;;;9.63;;
59756;SDS011;45631;51.962;5.974;2022-10-31T02:05:28;14.82;;;9.35;;
59756;SDS011;45631;51.962;5.974;2022-10-31T02:07:58;17.73;;;9.18;;
59756;SDS011;45631;51.962;5.974;2022-10-31T02:10:30;15.30;;;9.00;;
59756;SDS011;45631;51.962;5.974;2022-10-31T02:13:01;12.63;;;8.73;;
59756;SDS011;45631;51.962;5.974;2022-10-31T02:15:32;13.82;;;8.82;;
59756;SDS011;45631;51.962;5.974;2022-10-31T02:18:00;14.80;;;9.18;;
59756;SDS011;45631;51.962;5.974;2022-10-31T02:20:32;15.82;;;9.15;;
59756;SDS011;45631;51.962;5.974;2022-10-31T02:23:25;15.02;;;9.55;;
59756;SDS011;45631;51.962;5.974;2022-10-31T02:32:27;13.85;;;9.63;;
59756;SDS011;45631;51.962;5.974;2022-10-31T02:35:04;16.88;;;9.90;;
59756;SDS011;45631;51.962;5.974;2022-10-31T02:37:43;14.20;;;8.65;;
59756;SDS011;45631;51.962;5.974;2022-10-31T02:40:20;13.90;;;9.07;;
59756;SDS011;45631;51.962;5.974;2022-10-31T02:42:55;12.07;;;8.45;;
59756;SDS011;45631;51.962;5.974;2022-10-31T02:45:30;14.02;;;8.90;;
59756;SDS011;45631;51.962;5.974;2022-10-31T02:48:07;13.20;;;8.77;;
59756;SDS011;45631;51.962;5.974;2022-10-31T02:50:40;15.38;;;8.90;;
59756;SDS011;45631;51.962;5.974;2022-10-31T02:53:13;13.45;;;8.43;;
59756;SDS011;45631;51.962;5.974;2022-10-31T02:55:44;14.60;;;9.38;;
59756;SDS011;45631;51.962;5.974;2022-10-31T02:58:19;14.32;;;8.95;;
59756;SDS011;45631;51.962;5.974;2022-10-31T03:00:55;14.35;;;8.98;;
59756;SDS011;45631;51.962;5.974;2022-10-31T03:03:38;14.52;;;8.48;;
59756;SDS011;45631;51.962;5.974;2022-10-31T03:06:15;13.63;;;7.78;;
59756;SDS011;45631;51.962;5.974;2022-10-31T03:08:54;14.52;;;8.52;;
59756;SDS011;45631;51.962;5.974;2022-10-31T03:11:29;12.25;;;7.85;;
59756;SDS011;45631;51.962;5.974;2022-10-31T03:14:06;13.73;;;8.43;;
59756;SDS011;45631;51.962;5.974;2022-10-31T03:16:39;12.18;;;8.13;;
59756;SDS011;45631;51.962;5.974;2022-10-31T03:19:15;13.65;;;7.93;;
59756;SDS011;45631;51.962;5.974;2022-10-31T03:21:47;13.85;;;7.65;;
59756;SDS011;45631;51.962;5.974;2022-10-31T03:24:20;11.30;;;7.20;;
59756;SDS011;45631;51.962;5.974;2022-10-31T03:26:50;14.10;;;7.72;;
59756;SDS011;45631;51.962;5.974;2022-10-31T03:29:21;13.88;;;7.30;;
59756;SDS011;45631;51.962;5.974;2022-10-31T03:31:54;13.02;;;8.00;;
59756;SDS011;45631;51.962;5.974;2022-10-31T03:34:26;12.33;;;7.37;;
59756;SDS011;45631;51.962;5.974;2022-10-31T03:36:58;12.98;;;7.25;;
59756;SDS011;45631;51.962;5.974;2022-10-31T03:39:31;12.30;;;7.35;;
59756;SDS011;45631;51.962;5.974;2022-10-31T03:42:03;12.77;;;7.22;;
59756;SDS011;45631;51.962;5.974;2022-10-31T03:44:35;12.02;;;7.38;;
59756;SDS011;45631;51.962;5.974;2022-10-31T03:47:06;13.13;;;7.60;;
59756;SDS011;45631;51.962;5.974;2022-10-31T03:49:36;14.82;;;7.72;;
59756;SDS011;45631;51.962;5.974;2022-10-31T03:52:07;14.38;;;8.15;;
59756;SDS011;45631;51.962;5.974;2022-10-31T03:54:42;12.25;;;8.40;;
59756;SDS011;45631;51.962;5.974;2022-10-31T03:57:13;14.48;;;8.20;;
59756;SDS011;45631;51.962;5.974;2022-10-31T03:59:47;11.75;;;7.93;;
59756;SDS011;45631;51.962;5.974;2022-10-31T04:02:22;12.55;;;7.75;;
59756;SDS011;45631;51.962;5.974;2022-10-31T04:04:56;12.75;;;7.70;;
59756;SDS011;45631;51.962;5.974;2022-10-31T04:07:27;13.32;;;7.97;;
59756;SDS011;45631;51.962;5.974;2022-10-31T04:09:58;12.38;;;7.72;;
59756;SDS011;45631;51.962;5.974;2022-10-31T04:12:29;13.05;;;6.95;;
59756;SDS011;45631;51.962;5.974;2022-10-31T04:15:00;13.38;;;7.30;;
59756;SDS011;45631;51.962;5.974;2022-10-31T04:17:31;13.70;;;7.43;;
59756;SDS011;45631;51.962;5.974;2022-10-31T04:20:05;13.15;;;7.43;;
59756;SDS011;45631;51.962;5.974;2022-10-31T04:22:34;11.82;;;6.85;;
59756;SDS011;45631;51.962;5.974;2022-10-31T04:25:03;12.02;;;6.53;;
59756;SDS011;45631;51.962;5.974;2022-10-31T04:27:31;15.73;;;7.07;;
59756;SDS011;45631;51.962;5.974;2022-10-31T04:29:59;12.75;;;7.50;;
59756;SDS011;45631;51.962;5.974;2022-10-31T04:32:28;10.82;;;7.05;;
59756;SDS011;45631;51.962;5.974;2022-10-31T04:34:56;11.88;;;7.00;;
59756;SDS011;45631;51.962;5.974;2022-10-31T04:37:25;12.15;;;7.13;;
59756;SDS011;45631;51.962;5.974;2022-10-31T04:39:53;11.70;;;6.95;;
59756;SDS011;45631;51.962;5.974;2022-10-31T04:42:21;12.18;;;7.03;;
59756;SDS011;45631;51.962;5.974;2022-10-31T04:44:49;16.80;;;8.05;;
59756;SDS011;45631;51.962;5.974;2022-10-31T04:47:18;12.45;;;7.82;;
59756;SDS011;45631;51.962;5.974;2022-10-31T04:49:46;15.93;;;8.30;;
59756;SDS011;45631;51.962;5.974;2022-10-31T04:52:14;13.57;;;7.25;;
59756;SDS011;45631;51.962;5.974;2022-10-31T04:54:45;10.98;;;7.38;;
59756;SDS011;45631;51.962;5.974;2022-10-31T04:57:14;13.88;;;6.88;;
59756;SDS011;45631;51.962;5.974;2022-10-31T04:59:42;10.77;;;6.28;;
59756;SDS011;45631;51.962;5.974;2022-10-31T05:02:10;11.77;;;6.68;;
59756;SDS011;45631;51.962;5.974;2022-10-31T05:04:38;12.80;;;6.50;;
59756;SDS011;45631;51.962;5.974;2022-10-31T05:07:06;10.25;;;6.35;;
59756;SDS011;45631;51.962;5.974;2022-10-31T05:09:34;15.52;;;6.57;;
59756;SDS011;45631;51.962;5.974;2022-10-31T05:12:04;13.73;;;7.35;;
59756;SDS011;45631;51.962;5.974;2022-10-31T05:14:32;13.90;;;7.57;;
59756;SDS011;45631;51.962;5.974;2022-10-31T05:17:00;13.88;;;7.40;;
59756;SDS011;45631;51.962;5.974;2022-10-31T05:19:28;13.95;;;8.52;;
59756;SDS011;45631;51.962;5.974;2022-10-31T05:21:56;14.60;;;7.82;;
59756;SDS011;45631;51.962;5.974;2022-10-31T05:24:24;14.60;;;8.55;;
59756;SDS011;45631;51.962;5.974;2022-10-31T05:26:52;14.07;;;8.40;;
59756;SDS011;45631;51.962;5.974;2022-10-31T05:29:22;11.75;;;7.28;;
59756;SDS011;45631;51.962;5.974;2022-10-31T05:31:50;13.25;;;7.57;;
59756;SDS011;45631;51.962;5.974;2022-10-31T05:34:18;12.77;;;6.97;;
59756;SDS011;45631;51.962;5.974;2022-10-31T05:36:46;13.07;;;8.07;;
59756;SDS011;45631;51.962;5.974;2022-10-31T05:39:14;13.23;;;7.53;;
59756;SDS011;45631;51.962;5.974;2022-10-31T05:41:42;14.10;;;7.63;;
59756;SDS011;45631;51.962;5.974;2022-10-31T05:44:10;14.40;;;8.73;;
59756;SDS011;45631;51.962;5.974;2022-10-31T05:46:40;13.95;;;7.78;;
59756;SDS011;45631;51.962;5.974;2022-10-31T05:49:08;12.63;;;7.65;;
59756;SDS011;45631;51.962;5.974;2022-10-31T05:51:36;13.43;;;8.38;;
59756;SDS011;45631;51.962;5.974;2022-10-31T05:54:04;15.35;;;8.82;;
59756;SDS011;45631;51.962;5.974;2022-10-31T05:56:37;13.95;;;8.55;;
59756;SDS011;45631;51.962;5.974;2022-10-31T05:59:05;16.38;;;8.77;;
59756;SDS011;45631;51.962;5.974;2022-10-31T06:01:33;15.43;;;8.57;;
59756;SDS011;45631;51.962;5.974;2022-10-31T06:04:03;16.05;;;8.85;;
59756;SDS011;45631;51.962;5.974;2022-10-31T06:06:31;15.45;;;8.73;;
59756;SDS011;45631;51.962;5.974;2022-10-31T06:08:59;15.02;;;8.10;;
59756;SDS011;45631;51.962;5.974;2022-10-31T06:11:27;14.75;;;8.43;;
59756;SDS011;45631;51.962;5.974;2022-10-31T06:13:55;16.40;;;9.02;;
59756;SDS011;45631;51.962;5.974;2022-10-31T06:16:23;19.63;;;11.00;;
59756;SDS011;45631;51.962;5.974;2022-10-31T06:18:54;20.02;;;10.50;;
59756;SDS011;45631;51.962;5.974;2022-10-31T06:21:23;18.63;;;10.40;;
59756;SDS011;45631;51.962;5.974;2022-10-31T06:23:51;16.67;;;9.68;;
59756;SDS011;45631;51.962;5.974;2022-10-31T06:26:20;15.27;;;9.55;;
59756;SDS011;45631;51.962;5.974;2022-10-31T06:28:48;15.82;;;9.27;;
59756;SDS011;45631;51.962;5.974;2022-10-31T06:31:16;14.60;;;8.77;;
59756;SDS011;45631;51.962;5.974;2022-10-31T06:33:44;15.18;;;9.07;;
59756;SDS011;45631;51.962;5.974;2022-10-31T06:36:12;14.48;;;8.20;;
59756;SDS011;45631;51.962;5.974;2022-10-31T06:38:42;13.85;;;8.60;;
59756;SDS011;45631;51.962;5.974;2022-10-31T06:41:10;15.30;;;9.30;;
59756;SDS011;45631;51.962;5.974;2022-10-31T06:43:38;13.73;;;8.43;;
59756;SDS011;45631;51.962;5.974;2022-10-31T06:46:06;15.32;;;8.55;;
59756;SDS011;45631;51.962;5.974;2022-10-31T06:48:34;16.75;;;9.95;;
59756;SDS011;45631;51.962;5.974;2022-10-31T06:51:03;16.42;;;9.30;;
59756;SDS011;45631;51.962;5.974;2022-10-31T06:53:31;18.00;;;9.45;;
59756;SDS011;45631;51.962;5.974;2022-10-31T06:56:00;21.92;;;10.88;;
59756;SDS011;45631;51.962;5.974;2022-10-31T06:58:28;20.98;;;11.02;;
59756;SDS011;45631;51.962;5.974;2022-10-31T07:00:58;22.60;;;11.27;;
59756;SDS011;45631;51.962;5.974;2022-10-31T07:03:27;23.52;;;12.65;;
59756;SDS011;45631;51.962;5.974;2022-10-31T07:05:55;22.17;;;11.48;;
59756;SDS011;45631;51.962;5.974;2022-10-31T07:08:24;21.38;;;12.20;;
59756;SDS011;45631;51.962;5.974;2022-10-31T07:10:53;22.65;;;11.57;;
59756;SDS011;45631;51.962;5.974;2022-10-31T07:13:24;16.65;;;9.95;;
59756;SDS011;45631;51.962;5.974;2022-10-31T07:15:53;24.05;;;11.95;;
59756;SDS011;45631;51.962;5.974;2022-10-31T07:18:23;17.17;;;10.95;;
59756;SDS011;45631;51.962;5.974;2022-10-31T07:20:51;16.42;;;11.52;;
59756;SDS011;45631;51.962;5.974;2022-10-31T07:23:20;18.42;;;11.73;;
59756;SDS011;45631;51.962;5.974;2022-10-31T07:25:48;25.88;;;12.50;;
59756;SDS011;45631;51.962;5.974;2022-10-31T07:28:22;22.92;;;12.73;;
59756;SDS011;45631;51.962;5.974;2022-10-31T07:30:53;21.80;;;12.95;;
59756;SDS011;45631;51.962;5.974;2022-10-31T07:33:22;22.50;;;13.00;;
59756;SDS011;45631;51.962;5.974;2022-10-31T07:35:52;23.33;;;13.85;;
59756;SDS011;45631;51.962;5.974;2022-10-31T07:38:21;23.05;;;13.73;;
59756;SDS011;45631;51.962;5.974;2022-10-31T07:40:50;23.83;;;14.52;;
59756;SDS011;45631;51.962;5.974;2022-10-31T07:43:19;21.83;;;13.32;;
59756;SDS011;45631;51.962;5.974;2022-10-31T07:45:52;25.38;;;14.68;;
59756;SDS011;45631;51.962;5.974;2022-10-31T07:48:21;24.48;;;14.15;;
59756;SDS011;45631;51.962;5.974;2022-10-31T07:50:49;30.05;;;15.18;;
59756;SDS011;45631;51.962;5.974;2022-10-31T07:53:17;24.00;;;15.23;;
59756;SDS011;45631;51.962;5.974;2022-10-31T07:55:45;26.67;;;14.75;;
59756;SDS011;45631;51.962;5.974;2022-10-31T07:58:14;26.58;;;16.48;;
59756;SDS011;45631;51.962;5.974;2022-10-31T08:00:44;25.20;;;16.45;;
59756;SDS011;45631;51.962;5.974;2022-10-31T08:03:16;23.88;;;15.90;;
59756;SDS011;45631;51.962;5.974;2022-10-31T08:05:45;23.08;;;15.85;;
59756;SDS011;45631;51.962;5.974;2022-10-31T08:08:14;22.65;;;15.98;;
59756;SDS011;45631;51.962;5.974;2022-10-31T08:10:43;22.73;;;16.77;;
59756;SDS011;45631;51.962;5.974;2022-10-31T08:13:11;21.90;;;15.70;;
59756;SDS011;45631;51.962;5.974;2022-10-31T08:15:41;19.80;;;14.88;;
59756;SDS011;45631;51.962;5.974;2022-10-31T08:18:11;20.20;;;15.23;;
59756;SDS011;45631;51.962;5.974;2022-10-31T08:20:42;20.08;;;14.48;;
59756;SDS011;45631;51.962;5.974;2022-10-31T08:23:11;19.00;;;14.93;;
59756;SDS011;45631;51.962;5.974;2022-10-31T08:25:39;20.70;;;14.55;;
59756;SDS011;45631;51.962;5.974;2022-10-31T08:28:08;18.75;;;15.10;;
59756;SDS011;45631;51.962;5.974;2022-10-31T08:30:38;20.10;;;14.30;;
59756;SDS011;45631;51.962;5.974;2022-10-31T08:33:09;22.55;;;15.38;;
59756;SDS011;45631;51.962;5.974;2022-10-31T08:35:38;25.75;;;17.27;;
59756;SDS011;45631;51.962;5.974;2022-10-31T08:38:09;21.42;;;15.90;;
59756;SDS011;45631;51.962;5.974;2022-10-31T08:40:38;25.60;;;16.55;;
59756;SDS011;45631;51.962;5.974;2022-10-31T08:43:10;24.40;;;17.58;;
59756;SDS011;45631;51.962;5.974;2022-10-31T08:48:09;24.58;;;17.05;;
59756;SDS011;45631;51.962;5.974;2022-10-31T08:50:38;24.65;;;17.23;;
59756;SDS011;45631;51.962;5.974;2022-10-31T08:53:08;22.90;;;17.35;;
59756;SDS011;45631;51.962;5.974;2022-10-31T08:55:39;24.42;;;17.00;;
59756;SDS011;45631;51.962;5.974;2022-10-31T08:58:17;21.73;;;16.67;;
59756;SDS011;45631;51.962;5.974;2022-10-31T09:00:46;23.65;;;17.30;;
59756;SDS011;45631;51.962;5.974;2022-10-31T09:03:17;24.75;;;16.85;;
59756;SDS011;45631;51.962;5.974;2022-10-31T09:05:46;23.02;;;17.80;;
59756;SDS011;45631;51.962;5.974;2022-10-31T09:08:16;22.50;;;17.27;;
59756;SDS011;45631;51.962;5.974;2022-10-31T09:10:44;23.75;;;17.80;;
59756;SDS011;45631;51.962;5.974;2022-10-31T09:13:13;23.48;;;17.15;;
59756;SDS011;45631;51.962;5.974;2022-10-31T09:15:44;23.02;;;17.25;;
59756;SDS011;45631;51.962;5.974;2022-10-31T09:18:15;23.50;;;17.00;;
59756;SDS011;45631;51.962;5.974;2022-10-31T09:20:45;24.05;;;17.15;;
59756;SDS011;45631;51.962;5.974;2022-10-31T09:23:14;26.45;;;17.48;;
59756;SDS011;45631;51.962;5.974;2022-10-31T09:25:44;23.48;;;16.80;;
59756;SDS011;45631;51.962;5.974;2022-10-31T09:28:17;21.48;;;15.70;;
59756;SDS011;45631;51.962;5.974;2022-10-31T09:30:47;22.17;;;15.32;;
59756;SDS011;45631;51.962;5.974;2022-10-31T09:33:16;23.73;;;15.65;;
59756;SDS011;45631;51.962;5.974;2022-10-31T09:35:45;24.75;;;16.38;;
59756;SDS011;45631;51.962;5.974;2022-10-31T09:38:13;21.42;;;16.50;;
59756;SDS011;45631;51.962;5.974;2022-10-31T09:40:43;23.55;;;16.83;;
59756;SDS011;45631;51.962;5.974;2022-10-31T09:43:15;27.00;;;16.60;;
59756;SDS011;45631;51.962;5.974;2022-10-31T09:45:53;26.58;;;17.88;;
59756;SDS011;45631;51.962;5.974;2022-10-31T09:48:44;22.52;;;16.38;;
59756;SDS011;45631;51.962;5.974;2022-10-31T09:51:23;28.38;;;17.83;;
59756;SDS011;45631;51.962;5.974;2022-10-31T09:53:57;25.08;;;17.98;;
59756;SDS011;45631;51.962;5.974;2022-10-31T09:56:31;27.05;;;18.10;;
59756;SDS011;45631;51.962;5.974;2022-10-31T09:59:02;28.85;;;18.95;;
59756;SDS011;45631;51.962;5.974;2022-10-31T10:01:37;27.55;;;19.15;;
59756;SDS011;45631;51.962;5.974;2022-10-31T10:06:58;31.92;;;19.48;;
59756;SDS011;45631;51.962;5.974;2022-10-31T10:09:30;32.80;;;20.33;;
59756;SDS011;45631;51.962;5.974;2022-10-31T10:12:02;31.45;;;20.85;;
59756;SDS011;45631;51.962;5.974;2022-10-31T10:14:48;34.10;;;22.55;;
59756;SDS011;45631;51.962;5.974;2022-10-31T10:17:29;34.17;;;21.52;;
59756;SDS011;45631;51.962;5.974;2022-10-31T10:20:16;32.60;;;20.60;;
59756;SDS011;45631;51.962;5.974;2022-10-31T10:22:52;33.25;;;20.55;;
59756;SDS011;45631;51.962;5.974;2022-10-31T10:25:31;32.50;;;21.25;;
59756;SDS011;45631;51.962;5.974;2022-10-31T10:28:11;33.70;;;20.88;;
59756;SDS011;45631;51.962;5.974;2022-10-31T10:30:46;33.10;;;18.15;;
59756;SDS011;45631;51.962;5.974;2022-10-31T10:33:19;27.20;;;16.77;;
59756;SDS011;45631;51.962;5.974;2022-10-31T10:35:49;27.13;;;16.83;;
59756;SDS011;45631;51.962;5.974;2022-10-31T10:38:23;25.80;;;15.48;;
59756;SDS011;45631;51.962;5.974;2022-10-31T10:40:55;27.38;;;16.65;;
59756;SDS011;45631;51.962;5.974;2022-10-31T10:43:26;26.92;;;15.77;;
59756;SDS011;45631;51.962;5.974;2022-10-31T10:46:13;24.52;;;16.05;;
59756;SDS011;45631;51.962;5.974;2022-10-31T10:49:11;30.02;;;17.35;;
59756;SDS011;45631;51.962;5.974;2022-10-31T10:51:44;30.23;;;18.88;;
59756;SDS011;45631;51.962;5.974;2022-10-31T10:54:39;25.25;;;17.77;;
59756;SDS011;45631;51.962;5.974;2022-10-31T10:57:29;27.75;;;18.08;;
59756;SDS011;45631;51.962;5.974;2022-10-31T11:00:15;27.98;;;17.65;;
59756;SDS011;45631;51.962;5.974;2022-10-31T11:02:45;34.00;;;18.60;;
59756;SDS011;45631;51.962;5.974;2022-10-31T11:05:17;29.20;;;18.50;;
59756;SDS011;45631;51.962;5.974;2022-10-31T11:07:52;33.05;;;17.63;;
59756;SDS011;45631;51.962;5.974;2022-10-31T11:10:21;29.17;;;17.63;;
59756;SDS011;45631;51.962;5.974;2022-10-31T11:13:00;27.40;;;17.80;;
59756;SDS011;45631;51.962;5.974;2022-10-31T11:15:33;31.50;;;19.50;;
59756;SDS011;45631;51.962;5.974;2022-10-31T11:18:05;31.88;;;19.35;;
59756;SDS011;45631;51.962;5.974;2022-10-31T11:20:34;31.00;;;19.25;;
59756;SDS011;45631;51.962;5.974;2022-10-31T11:23:04;31.48;;;19.27;;
59756;SDS011;45631;51.962;5.974;2022-10-31T11:25:48;31.70;;;19.20;;
59756;SDS011;45631;51.962;5.974;2022-10-31T11:28:18;29.25;;;19.98;;
59756;SDS011;45631;51.962;5.974;2022-10-31T11:30:48;32.25;;;19.70;;
59756;SDS011;45631;51.962;5.974;2022-10-31T11:33:19;29.50;;;20.30;;
59756;SDS011;45631;51.962;5.974;2022-10-31T11:35:52;33.22;;;19.98;;
59756;SDS011;45631;51.962;5.974;2022-10-31T11:38:24;30.58;;;18.70;;
59756;SDS011;45631;51.962;5.974;2022-10-31T11:40:58;33.08;;;19.83;;
59756;SDS011;45631;51.962;5.974;2022-10-31T11:43:30;30.90;;;19.88;;
59756;SDS011;45631;51.962;5.974;2022-10-31T11:46:00;33.60;;;20.35;;
59756;SDS011;45631;51.962;5.974;2022-10-31T11:48:36;29.38;;;18.95;;
59756;SDS011;45631;51.962;5.974;2022-10-31T11:51:05;34.65;;;19.38;;
59756;SDS011;45631;51.962;5.974;2022-10-31T11:53:34;32.20;;;20.42;;
59756;SDS011;45631;51.962;5.974;2022-10-31T11:56:04;30.92;;;20.02;;
59756;SDS011;45631;51.962;5.974;2022-10-31T11:58:37;34.78;;;20.52;;
59756;SDS011;45631;51.962;5.974;2022-10-31T12:01:18;30.85;;;20.25;;
59756;SDS011;45631;51.962;5.974;2022-10-31T12:03:54;31.20;;;20.17;;
59756;SDS011;45631;51.962;5.974;2022-10-31T12:06:37;31.50;;;21.17;;
59756;SDS011;45631;51.962;5.974;2022-10-31T12:09:10;32.30;;;20.85;;
59756;SDS011;45631;51.962;5.974;2022-10-31T12:11:55;33.28;;;20.45;;
59756;SDS011;45631;51.962;5.974;2022-10-31T12:14:34;31.38;;;19.58;;
59756;SDS011;45631;51.962;5.974;2022-10-31T12:17:13;33.30;;;19.88;;
59756;SDS011;45631;51.962;5.974;2022-10-31T12:19:45;30.15;;;20.52;;
59756;SDS011;45631;51.962;5.974;2022-10-31T12:22:27;35.33;;;20.87;;
59756;SDS011;45631;51.962;5.974;2022-10-31T12:25:08;32.67;;;19.80;;
59756;SDS011;45631;51.962;5.974;2022-10-31T12:27:59;32.42;;;19.17;;
59756;SDS011;45631;51.962;5.974;2022-10-31T12:30:40;33.05;;;19.23;;
59756;SDS011;45631;51.962;5.974;2022-10-31T12:36:21;28.75;;;19.20;;
59756;SDS011;45631;51.962;5.974;2022-10-31T12:39:07;33.00;;;20.98;;
59756;SDS011;45631;51.962;5.974;2022-10-31T12:41:50;32.33;;;19.73;;
59756;SDS011;45631;51.962;5.974;2022-10-31T12:44:27;39.60;;;22.88;;
59756;SDS011;45631;51.962;5.974;2022-10-31T12:50:12;35.38;;;21.52;;
59756;SDS011;45631;51.962;5.974;2022-10-31T12:52:56;34.72;;;21.98;;
59756;SDS011;45631;51.962;5.974;2022-10-31T12:55:40;39.65;;;23.48;;
59756;SDS011;45631;51.962;5.974;2022-10-31T12:58:16;39.88;;;24.90;;
59756;SDS011;45631;51.962;5.974;2022-10-31T13:00:51;34.35;;;22.10;;
59756;SDS011;45631;51.962;5.974;2022-10-31T13:03:31;39.55;;;24.05;;
59756;SDS011;45631;51.962;5.974;2022-10-31T13:06:05;39.95;;;23.40;;
59756;SDS011;45631;51.962;5.974;2022-10-31T13:08:38;36.53;;;23.75;;
59756;SDS011;45631;51.962;5.974;2022-10-31T13:11:11;34.17;;;21.73;;
59756;SDS011;45631;51.962;5.974;2022-10-31T13:13:44;37.28;;;22.95;;
59756;SDS011;45631;51.962;5.974;2022-10-31T13:16:18;40.08;;;22.58;;
59756;SDS011;45631;51.962;5.974;2022-10-31T13:18:51;36.40;;;21.95;;
59756;SDS011;45631;51.962;5.974;2022-10-31T13:21:26;39.35;;;22.67;;
59756;SDS011;45631;51.962;5.974;2022-10-31T13:23:58;40.60;;;23.77;;
59756;SDS011;45631;51.962;5.974;2022-10-31T13:26:35;37.83;;;22.20;;
59756;SDS011;45631;51.962;5.974;2022-10-31T13:29:11;35.90;;;19.98;;
59756;SDS011;45631;51.962;5.974;2022-10-31T13:31:45;35.22;;;20.15;;
59756;SDS011;45631;51.962;5.974;2022-10-31T13:34:18;36.75;;;22.98;;
59756;SDS011;45631;51.962;5.974;2022-10-31T13:36:55;34.65;;;20.42;;
59756;SDS011;45631;51.962;5.974;2022-10-31T13:39:32;34.92;;;21.08;;
59756;SDS011;45631;51.962;5.974;2022-10-31T13:42:11;36.28;;;22.48;;
59756;SDS011;45631;51.962;5.974;2022-10-31T13:44:47;37.30;;;21.10;;
59756;SDS011;45631;51.962;5.974;2022-10-31T13:47:22;36.17;;;21.27;;
59756;SDS011;45631;51.962;5.974;2022-10-31T13:50:02;34.55;;;20.75;;
59756;SDS011;45631;51.962;5.974;2022-10-31T13:52:34;35.05;;;20.80;;
59756;SDS011;45631;51.962;5.974;2022-10-31T13:55:04;31.77;;;19.58;;
59756;SDS011;45631;51.962;5.974;2022-10-31T13:57:54;34.63;;;19.60;;
59756;SDS011;45631;51.962;5.974;2022-10-31T14:00:24;32.13;;;19.63;;
59756;SDS011;45631;51.962;5.974;2022-10-31T14:02:56;34.63;;;19.90;;
59756;SDS011;45631;51.962;5.974;2022-10-31T14:05:25;31.25;;;19.42;;
59756;SDS011;45631;51.962;5.974;2022-10-31T14:07:59;32.55;;;18.85;;
59756;SDS011;45631;51.962;5.974;2022-10-31T14:10:30;32.85;;;20.02;;
59756;SDS011;45631;51.962;5.974;2022-10-31T14:13:03;32.80;;;19.25;;
59756;SDS011;45631;51.962;5.974;2022-10-31T14:15:36;32.13;;;19.37;;
59756;SDS011;45631;51.962;5.974;2022-10-31T14:18:16;33.50;;;19.05;;
59756;SDS011;45631;51.962;5.974;2022-10-31T14:20:50;32.55;;;18.95;;
59756;SDS011;45631;51.962;5.974;2022-10-31T14:23:38;33.58;;;20.20;;
59756;SDS011;45631;51.962;5.974;2022-10-31T14:26:17;33.40;;;19.40;;
59756;SDS011;45631;51.962;5.974;2022-10-31T14:28:49;32.83;;;18.92;;
59756;SDS011;45631;51.962;5.974;2022-10-31T14:31:27;33.83;;;19.08;;
59756;SDS011;45631;51.962;5.974;2022-10-31T14:34:06;36.75;;;20.58;;
59756;SDS011;45631;51.962;5.974;2022-10-31T14:36:50;36.70;;;19.83;;
59756;SDS011;45631;51.962;5.974;2022-10-31T14:39:29;32.88;;;19.90;;
59756;SDS011;45631;51.962;5.974;2022-10-31T14:42:06;34.88;;;19.98;;
59756;SDS011;45631;51.962;5.974;2022-10-31T14:44:49;33.05;;;20.02;;
59756;SDS011;45631;51.962;5.974;2022-10-31T14:47:36;32.92;;;18.95;;
59756;SDS011;45631;51.962;5.974;2022-10-31T14:53:10;33.50;;;19.08;;
59756;SDS011;45631;51.962;5.974;2022-10-31T14:55:45;32.03;;;19.45;;
59756;SDS011;45631;51.962;5.974;2022-10-31T14:58:17;31.48;;;18.98;;
59756;SDS011;45631;51.962;5.974;2022-10-31T15:00:48;33.40;;;19.48;;
59756;SDS011;45631;51.962;5.974;2022-10-31T15:03:22;35.17;;;19.95;;
59756;SDS011;45631;51.962;5.974;2022-10-31T15:05:55;35.90;;;20.58;;
59756;SDS011;45631;51.962;5.974;2022-10-31T15:08:38;35.17;;;19.48;;
59756;SDS011;45631;51.962;5.974;2022-10-31T15:11:13;34.42;;;19.30;;
59756;SDS011;45631;51.962;5.974;2022-10-31T15:13:43;38.13;;;20.50;;
59756;SDS011;45631;51.962;5.974;2022-10-31T15:16:13;36.55;;;20.60;;